sensor_id;sensor_type;location;lat;lon;timestamp;pressure;altitude;pressure_sealevel;temperature;humidity
75006;BME280;63553;51.814;4.600;2022-12-18T00:01:30;102930.44;;;7.04;79.88
75006;BME280;63553;51.814;4.600;2022-12-18T00:04:00;102948.81;;;7.10;78.57
75006;BME280;63553;51.814;4.600;2022-12-18T00:06:27;102932.00;;;7.12;78.35
75006;BME280;63553;51.814;4.600;2022-12-18T00:08:54;102925.03;;;7.09;78.17
75006;BME280;63553;51.814;4.600;2022-12-18T00:11:21;102930.81;;;7.08;78.48
75006;BME280;63553;51.814;4.600;2022-12-18T00:13:48;102912.50;;;7.07;77.98
75006;BME280;63553;51.814;4.600;2022-12-18T00:16:16;102916.88;;;7.03;78.25
75006;BME280;63553;51.814;4.600;2022-12-18T00:18:45;102925.41;;;7.01;77.63
75006;BME280;63553;51.814;4.600;2022-12-18T00:21:12;102923.50;;;7.02;77.90
75006;BME280;63553;51.814;4.600;2022-12-18T00:23:38;102923.13;;;6.98;77.89
75006;BME280;63553;51.814;4.600;2022-12-18T00:26:10;102916.75;;;6.98;78.00
75006;BME280;63553;51.814;4.600;2022-12-18T00:28:36;102919.78;;;6.96;77.55
75006;BME280;63553;51.814;4.600;2022-12-18T00:31:02;102921.97;;;6.94;77.26
75006;BME280;63553;51.814;4.600;2022-12-18T00:33:28;102916.94;;;6.91;77.09
75006;BME280;63553;51.814;4.600;2022-12-18T00:35:53;102915.03;;;6.92;76.97
75006;BME280;63553;51.814;4.600;2022-12-18T00:38:19;102913.81;;;6.88;76.81
75006;BME280;63553;51.814;4.600;2022-12-18T00:40:44;102914.56;;;6.83;76.88
75006;BME280;63553;51.814;4.600;2022-12-18T00:43:09;102913.13;;;6.81;76.35
75006;BME280;63553;51.814;4.600;2022-12-18T00:45:35;102915.03;;;6.80;76.67
75006;BME280;63553;51.814;4.600;2022-12-18T00:48:01;102927.00;;;6.97;78.71
75006;BME280;63553;51.814;4.600;2022-12-18T00:50:26;102900.16;;;6.98;80.98
75006;BME280;63553;51.814;4.600;2022-12-18T00:52:52;102912.28;;;7.08;80.24
75006;BME280;63553;51.814;4.600;2022-12-18T00:55:17;102908.25;;;7.16;80.09
75006;BME280;63553;51.814;4.600;2022-12-18T00:57:43;102914.63;;;7.16;80.62
75006;BME280;63553;51.814;4.600;2022-12-18T01:00:12;102918.81;;;7.19;79.23
75006;BME280;63553;51.814;4.600;2022-12-18T01:02:38;102916.31;;;7.17;79.48
75006;BME280;63553;51.814;4.600;2022-12-18T01:05:04;102912.72;;;7.17;80.81
75006;BME280;63553;51.814;4.600;2022-12-18T01:07:29;102920.16;;;7.16;81.01
75006;BME280;63553;51.814;4.600;2022-12-18T01:09:54;102918.34;;;7.22;81.01
75006;BME280;63553;51.814;4.600;2022-12-18T01:12:20;102907.53;;;7.20;79.81
75006;BME280;63553;51.814;4.600;2022-12-18T01:14:45;102902.06;;;7.25;78.33
75006;BME280;63553;51.814;4.600;2022-12-18T01:17:10;102920.28;;;7.21;79.06
75006;BME280;63553;51.814;4.600;2022-12-18T01:19:36;102924.13;;;7.20;79.12
75006;BME280;63553;51.814;4.600;2022-12-18T01:22:01;102924.63;;;7.17;78.75
75006;BME280;63553;51.814;4.600;2022-12-18T01:24:26;102926.31;;;7.18;78.20
75006;BME280;63553;51.814;4.600;2022-12-18T01:26:52;102924.34;;;7.19;77.99
75006;BME280;63553;51.814;4.600;2022-12-18T01:29:17;102927.25;;;7.24;78.67
75006;BME280;63553;51.814;4.600;2022-12-18T01:31:43;102929.94;;;7.36;80.14
75006;BME280;63553;51.814;4.600;2022-12-18T01:34:08;102926.25;;;7.47;79.33
75006;BME280;63553;51.814;4.600;2022-12-18T01:36:37;102929.03;;;7.47;78.48
75006;BME280;63553;51.814;4.600;2022-12-18T01:39:10;102923.13;;;7.43;78.05
75006;BME280;63553;51.814;4.600;2022-12-18T01:41:37;102937.75;;;7.39;77.48
75006;BME280;63553;51.814;4.600;2022-12-18T01:49:53;102923.53;;;7.18;78.88
75006;BME280;63553;51.814;4.600;2022-12-18T01:52:19;102925.97;;;7.15;78.98
75006;BME280;63553;51.814;4.600;2022-12-18T01:54:46;102929.81;;;7.14;77.81
75006;BME280;63553;51.814;4.600;2022-12-18T01:57:13;102942.56;;;7.15;77.39
75006;BME280;63553;51.814;4.600;2022-12-18T01:59:39;102942.94;;;7.35;82.39
75006;BME280;63553;51.814;4.600;2022-12-18T02:02:07;102938.31;;;7.57;83.71
75006;BME280;63553;51.814;4.600;2022-12-18T02:04:33;102947.28;;;7.81;84.70
75006;BME280;63553;51.814;4.600;2022-12-18T02:07:01;102940.13;;;8.02;85.14
75006;BME280;63553;51.814;4.600;2022-12-18T02:09:34;102936.50;;;8.18;85.08
75006;BME280;63553;51.814;4.600;2022-12-18T02:12:35;102934.66;;;8.23;82.52
75006;BME280;63553;51.814;4.600;2022-12-18T02:28:11;102922.41;;;7.64;82.22
75006;BME280;63553;51.814;4.600;2022-12-18T02:30:39;102920.13;;;7.61;79.20
75006;BME280;63553;51.814;4.600;2022-12-18T02:33:07;102926.44;;;7.57;78.69
75006;BME280;63553;51.814;4.600;2022-12-18T02:35:36;102931.28;;;7.50;78.90
75006;BME280;63553;51.814;4.600;2022-12-18T02:38:03;102928.94;;;7.42;78.91
75006;BME280;63553;51.814;4.600;2022-12-18T02:40:30;102931.59;;;7.37;78.44
75006;BME280;63553;51.814;4.600;2022-12-18T02:43:02;102933.44;;;7.31;79.49
75006;BME280;63553;51.814;4.600;2022-12-18T02:45:28;102929.50;;;7.27;79.65
75006;BME280;63553;51.814;4.600;2022-12-18T02:47:53;102926.75;;;7.27;77.64
75006;BME280;63553;51.814;4.600;2022-12-18T02:50:47;102924.22;;;7.25;77.61
75006;BME280;63553;51.814;4.600;2022-12-18T02:56:21;102902.06;;;7.09;77.77
75006;BME280;63553;51.814;4.600;2022-12-18T02:59:47;102906.75;;;7.08;80.28
75006;BME280;63553;51.814;4.600;2022-12-18T03:02:06;102900.38;;;7.08;78.33
75006;BME280;63553;51.814;4.600;2022-12-18T03:04:43;102898.69;;;7.07;77.58
75006;BME280;63553;51.814;4.600;2022-12-18T03:07:18;102890.66;;;7.05;77.35
75006;BME280;63553;51.814;4.600;2022-12-18T03:09:48;102886.69;;;7.01;77.07
75006;BME280;63553;51.814;4.600;2022-12-18T03:12:19;102885.63;;;7.02;80.17
75006;BME280;63553;51.814;4.600;2022-12-18T03:15:04;102877.31;;;7.02;80.40
75006;BME280;63553;51.814;4.600;2022-12-18T03:17:34;102874.28;;;7.04;80.42
75006;BME280;63553;51.814;4.600;2022-12-18T03:20:07;102881.28;;;7.06;79.71
75006;BME280;63553;51.814;4.600;2022-12-18T03:22:36;102874.06;;;7.05;78.69
75006;BME280;63553;51.814;4.600;2022-12-18T03:25:06;102876.56;;;7.07;77.33
75006;BME280;63553;51.814;4.600;2022-12-18T03:27:33;102874.91;;;7.06;76.62
75006;BME280;63553;51.814;4.600;2022-12-18T03:30:07;102865.41;;;7.02;76.37
75006;BME280;63553;51.814;4.600;2022-12-18T03:32:40;102865.34;;;6.97;77.29
75006;BME280;63553;51.814;4.600;2022-12-18T03:35:08;102857.75;;;6.92;75.97
75006;BME280;63553;51.814;4.600;2022-12-18T03:37:35;102848.53;;;6.87;75.79
75006;BME280;63553;51.814;4.600;2022-12-18T03:40:02;102847.13;;;6.84;77.08
75006;BME280;63553;51.814;4.600;2022-12-18T03:42:50;102859.59;;;6.87;79.04
75006;BME280;63553;51.814;4.600;2022-12-18T03:45:25;102851.06;;;6.88;79.01
75006;BME280;63553;51.814;4.600;2022-12-18T03:55:37;102860.22;;;6.89;78.15
75006;BME280;63553;51.814;4.600;2022-12-18T03:58:05;102864.28;;;6.86;77.24
75006;BME280;63553;51.814;4.600;2022-12-18T04:00:33;102854.56;;;6.84;77.36
75006;BME280;63553;51.814;4.600;2022-12-18T04:03:00;102853.22;;;6.86;76.32
75006;BME280;63553;51.814;4.600;2022-12-18T04:05:28;102842.66;;;6.83;75.87
75006;BME280;63553;51.814;4.600;2022-12-18T04:07:55;102853.22;;;6.86;75.84
75006;BME280;63553;51.814;4.600;2022-12-18T04:10:21;102853.72;;;6.83;75.91
75006;BME280;63553;51.814;4.600;2022-12-18T04:12:47;102855.91;;;6.81;76.51
75006;BME280;63553;51.814;4.600;2022-12-18T04:15:13;102854.56;;;6.84;78.19
75006;BME280;63553;51.814;4.600;2022-12-18T04:17:46;102862.63;;;6.85;78.34
75006;BME280;63553;51.814;4.600;2022-12-18T04:20:12;102867.66;;;6.88;78.27
75006;BME280;63553;51.814;4.600;2022-12-18T04:22:37;102865.75;;;6.89;78.69
75006;BME280;63553;51.814;4.600;2022-12-18T04:25:03;102862.22;;;6.93;78.97
75006;BME280;63553;51.814;4.600;2022-12-18T04:27:28;102866.75;;;6.99;79.61
75006;BME280;63553;51.814;4.600;2022-12-18T04:29:54;102858.19;;;7.01;79.63
75006;BME280;63553;51.814;4.600;2022-12-18T04:32:19;102861.06;;;7.06;79.92
75006;BME280;63553;51.814;4.600;2022-12-18T04:34:45;102869.72;;;7.09;80.20
75006;BME280;63553;51.814;4.600;2022-12-18T04:37:10;102858.97;;;7.13;80.17
75006;BME280;63553;51.814;4.600;2022-12-18T04:39:36;102868.72;;;7.15;80.42
75006;BME280;63553;51.814;4.600;2022-12-18T04:42:01;102865.88;;;7.27;79.94
75006;BME280;63553;51.814;4.600;2022-12-18T04:44:26;102860.50;;;7.37;81.83
75006;BME280;63553;51.814;4.600;2022-12-18T04:46:52;102864.19;;;7.43;82.55
75006;BME280;63553;51.814;4.600;2022-12-18T04:49:17;102874.44;;;7.42;81.24
75006;BME280;63553;51.814;4.600;2022-12-18T04:51:42;102863.03;;;7.39;81.39
75006;BME280;63553;51.814;4.600;2022-12-18T04:54:08;102868.56;;;7.39;81.56
75006;BME280;63553;51.814;4.600;2022-12-18T04:56:33;102868.28;;;7.40;81.31
75006;BME280;63553;51.814;4.600;2022-12-18T04:58:59;102856.66;;;7.38;81.55
75006;BME280;63553;51.814;4.600;2022-12-18T05:01:24;102851.94;;;7.39;82.30
75006;BME280;63553;51.814;4.600;2022-12-18T05:03:51;102850.84;;;7.40;81.43
75006;BME280;63553;51.814;4.600;2022-12-18T05:06:17;102860.25;;;7.39;81.83
75006;BME280;63553;51.814;4.600;2022-12-18T05:08:42;102865.78;;;7.39;81.94
75006;BME280;63553;51.814;4.600;2022-12-18T05:11:10;102865.28;;;7.42;81.75
75006;BME280;63553;51.814;4.600;2022-12-18T05:13:36;102863.03;;;7.39;81.83
75006;BME280;63553;51.814;4.600;2022-12-18T05:16:03;102868.91;;;7.42;80.92
75006;BME280;63553;51.814;4.600;2022-12-18T05:18:29;102863.09;;;7.44;81.62
75006;BME280;63553;51.814;4.600;2022-12-18T05:20:54;102861.16;;;7.44;81.70
75006;BME280;63553;51.814;4.600;2022-12-18T05:23:21;102856.38;;;7.40;81.50
75006;BME280;63553;51.814;4.600;2022-12-18T05:25:55;102855.88;;;7.43;81.67
75006;BME280;63553;51.814;4.600;2022-12-18T05:28:21;102844.81;;;7.43;81.59
75006;BME280;63553;51.814;4.600;2022-12-18T05:30:51;102851.44;;;7.42;81.81
75006;BME280;63553;51.814;4.600;2022-12-18T05:33:17;102851.44;;;7.42;81.32
75006;BME280;63553;51.814;4.600;2022-12-18T05:35:43;102851.09;;;7.38;81.16
75006;BME280;63553;51.814;4.600;2022-12-18T05:38:08;102848.28;;;7.33;80.66
75006;BME280;63553;51.814;4.600;2022-12-18T05:40:34;102847.66;;;7.31;80.61
75006;BME280;63553;51.814;4.600;2022-12-18T05:42:59;102856.72;;;7.26;79.79
75006;BME280;63553;51.814;4.600;2022-12-18T05:45:24;102855.53;;;7.22;80.62
75006;BME280;63553;51.814;4.600;2022-12-18T05:47:50;102860.72;;;7.19;80.32
75006;BME280;63553;51.814;4.600;2022-12-18T05:50:15;102859.31;;;7.16;79.65
75006;BME280;63553;51.814;4.600;2022-12-18T05:52:40;102845.41;;;7.11;77.97
75006;BME280;63553;51.814;4.600;2022-12-18T05:55:06;102845.91;;;7.08;76.75
75006;BME280;63553;51.814;4.600;2022-12-18T05:57:32;102846.06;;;7.02;76.14
75006;BME280;63553;51.814;4.600;2022-12-18T05:59:57;102845.41;;;6.95;76.02
75006;BME280;63553;51.814;4.600;2022-12-18T06:02:22;102844.44;;;6.89;78.89
75006;BME280;63553;51.814;4.600;2022-12-18T06:04:48;102842.16;;;6.86;79.02
75006;BME280;63553;51.814;4.600;2022-12-18T06:07:13;102842.28;;;6.91;80.31
75006;BME280;63553;51.814;4.600;2022-12-18T06:09:39;102831.81;;;7.10;79.65
75006;BME280;63553;51.814;4.600;2022-12-18T06:12:04;102823.25;;;7.28;82.30
75006;BME280;63553;51.814;4.600;2022-12-18T06:14:30;102827.13;;;7.44;83.48
75006;BME280;63553;51.814;4.600;2022-12-18T06:16:55;102822.25;;;7.51;83.88
75006;BME280;63553;51.814;4.600;2022-12-18T06:19:21;102858.22;;;-3.13;75.33
75006;BME280;63553;51.814;4.600;2022-12-18T06:21:46;102845.00;;;-4.94;81.62
75006;BME280;63553;51.814;4.600;2022-12-18T06:24:11;102841.91;;;-4.83;83.17
75006;BME280;63553;51.814;4.600;2022-12-18T06:26:38;102847.50;;;-4.76;85.83
75006;BME280;63553;51.814;4.600;2022-12-18T06:29:04;102847.69;;;-4.86;84.73
75006;BME280;63553;51.814;4.600;2022-12-18T06:31:29;102852.72;;;-4.59;85.06
75006;BME280;63553;51.814;4.600;2022-12-18T06:33:54;102854.63;;;-4.67;82.74
75006;BME280;63553;51.814;4.600;2022-12-18T06:36:20;102861.22;;;-4.78;84.15
75006;BME280;63553;51.814;4.600;2022-12-18T06:38:46;102861.94;;;-4.76;84.66
75006;BME280;63553;51.814;4.600;2022-12-18T06:41:17;102858.91;;;-5.21;82.94
75006;BME280;63553;51.814;4.600;2022-12-18T06:43:43;102856.69;;;-5.01;82.98
75006;BME280;63553;51.814;4.600;2022-12-18T06:46:09;102850.25;;;-5.09;83.51
75006;BME280;63553;51.814;4.600;2022-12-18T06:48:35;102851.22;;;-4.77;84.38
75006;BME280;63553;51.814;4.600;2022-12-18T06:51:01;102848.41;;;-5.08;82.93
75006;BME280;63553;51.814;4.600;2022-12-18T06:53:27;102830.25;;;-4.99;84.15
75006;BME280;63553;51.814;4.600;2022-12-18T06:55:52;102819.91;;;-5.04;83.90
75006;BME280;63553;51.814;4.600;2022-12-18T06:58:18;102810.63;;;-5.18;83.49
75006;BME280;63553;51.814;4.600;2022-12-18T07:00:43;102802.09;;;-4.98;83.74
75006;BME280;63553;51.814;4.600;2022-12-18T07:03:10;102802.78;;;-5.05;84.00
75006;BME280;63553;51.814;4.600;2022-12-18T07:05:39;102809.41;;;-5.07;84.01
75006;BME280;63553;51.814;4.600;2022-12-18T07:08:05;102809.25;;;-5.30;84.08
75006;BME280;63553;51.814;4.600;2022-12-18T07:10:31;102801.31;;;-5.23;84.41
75006;BME280;63553;51.814;4.600;2022-12-18T07:12:56;102793.31;;;-5.25;84.66
75006;BME280;63553;51.814;4.600;2022-12-18T07:15:22;102790.44;;;-4.99;85.01
75006;BME280;63553;51.814;4.600;2022-12-18T07:17:47;102783.97;;;-4.98;83.13
75006;BME280;63553;51.814;4.600;2022-12-18T07:20:12;102775.34;;;-5.10;83.93
75006;BME280;63553;51.814;4.600;2022-12-18T07:22:38;102764.53;;;-5.34;83.71
75006;BME280;63553;51.814;4.600;2022-12-18T07:25:03;102759.41;;;-5.13;84.06
75006;BME280;63553;51.814;4.600;2022-12-18T07:27:29;102743.16;;;-5.13;83.35
75006;BME280;63553;51.814;4.600;2022-12-18T07:29:54;102746.41;;;-5.17;83.26
75006;BME280;63553;51.814;4.600;2022-12-18T07:32:20;102739.25;;;-5.02;83.93
75006;BME280;63553;51.814;4.600;2022-12-18T07:34:45;102730.38;;;-4.88;84.30
75006;BME280;63553;51.814;4.600;2022-12-18T07:37:10;102733.69;;;-5.17;84.04
75006;BME280;63553;51.814;4.600;2022-12-18T07:39:35;102749.44;;;-5.20;84.30
75006;BME280;63553;51.814;4.600;2022-12-18T07:42:01;102753.47;;;-5.00;83.28
75006;BME280;63553;51.814;4.600;2022-12-18T07:44:45;102749.59;;;-5.06;83.45
75006;BME280;63553;51.814;4.600;2022-12-18T07:47:11;102751.97;;;-5.19;83.63
75006;BME280;63553;51.814;4.600;2022-12-18T07:49:36;102753.69;;;-5.18;83.20
75006;BME280;63553;51.814;4.600;2022-12-18T07:52:02;102742.78;;;-4.93;82.60
75006;BME280;63553;51.814;4.600;2022-12-18T07:54:27;102746.88;;;-5.06;83.69
75006;BME280;63553;51.814;4.600;2022-12-18T07:56:52;102741.09;;;-5.02;83.25
75006;BME280;63553;51.814;4.600;2022-12-18T07:59:18;102745.88;;;-5.13;83.52
75006;BME280;63553;51.814;4.600;2022-12-18T08:01:43;102746.84;;;-4.97;83.32
75006;BME280;63553;51.814;4.600;2022-12-18T08:04:09;102746.22;;;-5.16;82.61
75006;BME280;63553;51.814;4.600;2022-12-18T08:06:35;102740.09;;;-5.10;83.68
75006;BME280;63553;51.814;4.600;2022-12-18T08:09:00;102715.03;;;-5.12;82.36
75006;BME280;63553;51.814;4.600;2022-12-18T08:11:28;102744.38;;;-4.68;82.81
75006;BME280;63553;51.814;4.600;2022-12-18T08:13:54;102753.28;;;-4.90;83.28
75006;BME280;63553;51.814;4.600;2022-12-18T08:16:20;102744.63;;;-4.94;83.72
75006;BME280;63553;51.814;4.600;2022-12-18T08:18:47;102741.75;;;-4.92;83.00
75006;BME280;63553;51.814;4.600;2022-12-18T08:21:19;102731.34;;;-4.81;82.36
75006;BME280;63553;51.814;4.600;2022-12-18T08:23:46;102724.50;;;-4.61;82.82
75006;BME280;63553;51.814;4.600;2022-12-18T08:26:11;102716.22;;;-4.67;81.80
75006;BME280;63553;51.814;4.600;2022-12-18T08:28:37;102716.28;;;-4.75;82.28
75006;BME280;63553;51.814;4.600;2022-12-18T08:31:03;102718.63;;;-4.72;82.36
75006;BME280;63553;51.814;4.600;2022-12-18T08:33:28;102731.66;;;-4.68;82.29
75006;BME280;63553;51.814;4.600;2022-12-18T08:35:54;102733.88;;;-4.71;82.24
75006;BME280;63553;51.814;4.600;2022-12-18T08:38:19;102742.41;;;-4.43;82.17
75006;BME280;63553;51.814;4.600;2022-12-18T08:40:45;102742.91;;;-4.48;81.92
75006;BME280;63553;51.814;4.600;2022-12-18T08:43:10;102742.56;;;-4.45;81.83
75006;BME280;63553;51.814;4.600;2022-12-18T08:45:55;102748.59;;;-4.27;81.80
75006;BME280;63553;51.814;4.600;2022-12-18T08:48:20;102743.56;;;-4.38;81.11
75006;BME280;63553;51.814;4.600;2022-12-18T08:50:56;102752.50;;;-3.99;81.94
75006;BME280;63553;51.814;4.600;2022-12-18T08:53:22;102753.78;;;-3.86;79.76
75006;BME280;63553;51.814;4.600;2022-12-18T08:55:50;102766.88;;;-3.90;80.56
75006;BME280;63553;51.814;4.600;2022-12-18T08:58:15;102779.34;;;-4.04;80.89
75006;BME280;63553;51.814;4.600;2022-12-18T09:00:40;102777.59;;;-3.97;80.42
75006;BME280;63553;51.814;4.600;2022-12-18T09:03:12;102787.09;;;-3.92;81.17
75006;BME280;63553;51.814;4.600;2022-12-18T09:05:37;102796.88;;;-3.83;80.53
75006;BME280;63553;51.814;4.600;2022-12-18T09:08:02;102788.53;;;-3.82;81.11
75006;BME280;63553;51.814;4.600;2022-12-18T09:10:28;102768.72;;;-3.90;80.70
75006;BME280;63553;51.814;4.600;2022-12-18T09:12:53;102760.72;;;-3.84;81.01
75006;BME280;63553;51.814;4.600;2022-12-18T09:15:18;102749.13;;;-3.78;81.26
75006;BME280;63553;51.814;4.600;2022-12-18T09:17:44;102736.06;;;-3.82;81.87
75006;BME280;63553;51.814;4.600;2022-12-18T09:20:09;102728.19;;;-3.92;82.12
75006;BME280;63553;51.814;4.600;2022-12-18T09:22:35;102719.72;;;-3.74;81.53
75006;BME280;63553;51.814;4.600;2022-12-18T09:25:00;102716.47;;;-3.92;81.08
75006;BME280;63553;51.814;4.600;2022-12-18T09:27:25;102722.53;;;-3.90;80.52
75006;BME280;63553;51.814;4.600;2022-12-18T09:29:51;102724.44;;;-3.68;81.55
75006;BME280;63553;51.814;4.600;2022-12-18T09:32:16;102713.84;;;-3.86;81.33
75006;BME280;63553;51.814;4.600;2022-12-18T09:34:41;102719.81;;;-3.68;80.44
75006;BME280;63553;51.814;4.600;2022-12-18T09:37:06;102725.56;;;-3.63;81.17
75006;BME280;63553;51.814;4.600;2022-12-18T09:39:35;102736.00;;;-3.52;80.40
75006;BME280;63553;51.814;4.600;2022-12-18T09:42:01;102732.59;;;-3.68;81.03
75006;BME280;63553;51.814;4.600;2022-12-18T09:49:47;102743.78;;;-3.49;81.21
75006;BME280;63553;51.814;4.600;2022-12-18T09:52:37;102745.38;;;-3.54;80.85
75006;BME280;63553;51.814;4.600;2022-12-18T09:55:45;102737.41;;;-3.41;81.92
75006;BME280;63553;51.814;4.600;2022-12-18T09:58:28;102718.31;;;-3.33;80.99
75006;BME280;63553;51.814;4.600;2022-12-18T10:00:56;102716.78;;;-3.36;80.89
75006;BME280;63553;51.814;4.600;2022-12-18T10:03:22;102710.34;;;-3.20;81.12
75006;BME280;63553;51.814;4.600;2022-12-18T10:06:12;102720.00;;;-3.17;80.35
75006;BME280;63553;51.814;4.600;2022-12-18T10:09:03;102713.75;;;-2.74;78.59
75006;BME280;63553;51.814;4.600;2022-12-18T10:15:30;102702.66;;;-3.02;79.71
75006;BME280;63553;51.814;4.600;2022-12-18T10:22:48;102673.69;;;-3.09;79.98
75006;BME280;63553;51.814;4.600;2022-12-18T10:25:24;102669.75;;;-2.92;79.31
75006;BME280;63553;51.814;4.600;2022-12-18T10:27:56;102659.41;;;-3.11;80.29
75006;BME280;63553;51.814;4.600;2022-12-18T10:30:23;102661.97;;;-3.10;79.61
75006;BME280;63553;51.814;4.600;2022-12-18T10:32:49;102652.00;;;-1.12;92.36
75006;BME280;63553;51.814;4.600;2022-12-18T10:35:21;102641.91;;;0.49;90.32
75006;BME280;63553;51.814;4.600;2022-12-18T10:40:28;102646.25;;;2.47;82.05
75006;BME280;63553;51.814;4.600;2022-12-18T10:43:12;102655.81;;;3.06;79.99
75006;BME280;63553;51.814;4.600;2022-12-18T10:45:38;102648.69;;;3.53;78.26
75006;BME280;63553;51.814;4.600;2022-12-18T10:48:04;102638.31;;;3.84;76.74
75006;BME280;63553;51.814;4.600;2022-12-18T10:50:35;102633.72;;;4.08;76.72
75006;BME280;63553;51.814;4.600;2022-12-18T10:53:03;102637.81;;;4.29;75.94
75006;BME280;63553;51.814;4.600;2022-12-18T10:55:35;102640.72;;;4.45;75.93
75006;BME280;63553;51.814;4.600;2022-12-18T11:01:44;102636.31;;;4.79;75.13
75006;BME280;63553;51.814;4.600;2022-12-18T11:06:20;102638.81;;;5.04;74.36
75006;BME280;63553;51.814;4.600;2022-12-18T11:11:24;102627.88;;;5.21;74.10
75006;BME280;63553;51.814;4.600;2022-12-18T11:14:05;102623.06;;;5.28;74.13
75006;BME280;63553;51.814;4.600;2022-12-18T11:16:42;102616.22;;;5.30;73.51
75006;BME280;63553;51.814;4.600;2022-12-18T11:19:29;102633.81;;;5.41;73.79
75006;BME280;63553;51.814;4.600;2022-12-18T11:21:57;102623.97;;;5.45;73.62
75006;BME280;63553;51.814;4.600;2022-12-18T11:24:34;102626.84;;;5.50;73.70
75006;BME280;63553;51.814;4.600;2022-12-18T11:27:00;102623.09;;;5.56;73.68
75006;BME280;63553;51.814;4.600;2022-12-18T11:29:33;102619.84;;;5.59;74.01
75006;BME280;63553;51.814;4.600;2022-12-18T11:34:41;102600.66;;;5.64;74.14
75006;BME280;63553;51.814;4.600;2022-12-18T11:37:09;102611.28;;;5.72;73.89
75006;BME280;63553;51.814;4.600;2022-12-18T11:39:45;102599.50;;;5.77;73.38
75006;BME280;63553;51.814;4.600;2022-12-18T11:42:17;102609.19;;;5.79;73.82
75006;BME280;63553;51.814;4.600;2022-12-18T11:44:51;102589.66;;;5.81;73.50
75006;BME280;63553;51.814;4.600;2022-12-18T11:47:29;102595.50;;;5.84;73.42
75006;BME280;63553;51.814;4.600;2022-12-18T11:50:01;102587.00;;;5.86;73.34
75006;BME280;63553;51.814;4.600;2022-12-18T11:52:39;102566.59;;;5.87;73.46
75006;BME280;63553;51.814;4.600;2022-12-18T11:55:12;102546.22;;;5.88;73.10
75006;BME280;63553;51.814;4.600;2022-12-18T12:00:15;102545.69;;;6.07;76.78
75006;BME280;63553;51.814;4.600;2022-12-18T12:07:52;102524.50;;;6.30;75.29
75006;BME280;63553;51.814;4.600;2022-12-18T12:11:09;102518.16;;;6.29;75.04
75006;BME280;63553;51.814;4.600;2022-12-18T12:13:23;102517.84;;;6.26;75.08
75006;BME280;63553;51.814;4.600;2022-12-18T12:16:07;102520.59;;;6.26;74.63
75006;BME280;63553;51.814;4.600;2022-12-18T12:18:56;102521.09;;;6.23;74.24
75006;BME280;63553;51.814;4.600;2022-12-18T12:21:40;102519.19;;;6.23;73.99
75006;BME280;63553;51.814;4.600;2022-12-18T12:27:51;102516.31;;;6.18;73.94
75006;BME280;63553;51.814;4.600;2022-12-18T12:32:52;102508.38;;;6.22;73.73
75006;BME280;63553;51.814;4.600;2022-12-18T12:36:07;102503.69;;;6.22;73.80
75006;BME280;63553;51.814;4.600;2022-12-18T12:38:11;102507.78;;;6.20;73.96
75006;BME280;63553;51.814;4.600;2022-12-18T12:40:43;102498.09;;;6.17;74.28
75006;BME280;63553;51.814;4.600;2022-12-18T12:43:22;102496.19;;;6.18;73.92
75006;BME280;63553;51.814;4.600;2022-12-18T12:46:10;102498.66;;;6.19;74.27
75006;BME280;63553;51.814;4.600;2022-12-18T12:48:56;102491.47;;;6.18;73.91
75006;BME280;63553;51.814;4.600;2022-12-18T12:53:49;102498.94;;;6.18;74.31
75006;BME280;63553;51.814;4.600;2022-12-18T12:56:17;102488.69;;;6.18;74.20
75006;BME280;63553;51.814;4.600;2022-12-18T13:01:53;102481.09;;;6.25;74.29
75006;BME280;63553;51.814;4.600;2022-12-18T13:04:32;102473.88;;;6.24;74.09
75006;BME280;63553;51.814;4.600;2022-12-18T13:09:33;102468.69;;;6.28;74.18
75006;BME280;63553;51.814;4.600;2022-12-18T13:12:04;102462.09;;;6.29;74.49
75006;BME280;63553;51.814;4.600;2022-12-18T13:14:52;102462.09;;;6.29;74.34
75006;BME280;63553;51.814;4.600;2022-12-18T13:20:12;102459.31;;;6.29;74.58
75006;BME280;63553;51.814;4.600;2022-12-18T13:22:47;102456.06;;;6.32;74.23
75006;BME280;63553;51.814;4.600;2022-12-18T13:25:34;102450.53;;;6.32;74.07
75006;BME280;63553;51.814;4.600;2022-12-18T13:28:02;102447.78;;;6.32;74.06
75006;BME280;63553;51.814;4.600;2022-12-18T13:30:43;102444.16;;;6.31;73.82
75006;BME280;63553;51.814;4.600;2022-12-18T13:48:26;102410.69;;;6.28;73.48
75006;BME280;63553;51.814;4.600;2022-12-18T13:50:56;102414.28;;;6.28;73.27
75006;BME280;63553;51.814;4.600;2022-12-18T13:53:44;102410.69;;;6.28;73.10
75006;BME280;63553;51.814;4.600;2022-12-18T13:56:26;102413.44;;;6.28;73.19
75006;BME280;63553;51.814;4.600;2022-12-18T13:59:14;102412.38;;;6.29;72.89
75006;BME280;63553;51.814;4.600;2022-12-18T14:01:55;102404.94;;;6.29;72.74
75006;BME280;63553;51.814;4.600;2022-12-18T14:04:29;102406.50;;;6.25;72.89
75006;BME280;63553;51.814;4.600;2022-12-18T14:07:03;102414.28;;;6.28;72.75
75006;BME280;63553;51.814;4.600;2022-12-18T14:09:31;102408.44;;;6.25;72.73
75006;BME280;63553;51.814;4.600;2022-12-18T14:12:00;102400.16;;;6.25;72.53
75006;BME280;63553;51.814;4.600;2022-12-18T14:14:46;102402.91;;;6.25;72.42
75006;BME280;63553;51.814;4.600;2022-12-18T14:17:14;102398.47;;;6.24;72.18
75006;BME280;63553;51.814;4.600;2022-12-18T14:19:48;102393.22;;;6.22;72.03
75006;BME280;63553;51.814;4.600;2022-12-18T14:22:17;102383.59;;;6.25;72.68
75006;BME280;63553;51.814;4.600;2022-12-18T14:24:44;102387.69;;;6.22;72.57
75006;BME280;63553;51.814;4.600;2022-12-18T14:27:24;102367.19;;;6.18;71.68
75006;BME280;63553;51.814;4.600;2022-12-18T14:29:50;102376.31;;;6.19;72.07
75006;BME280;63553;51.814;4.600;2022-12-18T14:32:18;102364.44;;;6.18;72.26
75006;BME280;63553;51.814;4.600;2022-12-18T14:34:51;102366.69;;;6.21;72.25
75006;BME280;63553;51.814;4.600;2022-12-18T14:37:22;102355.84;;;6.14;71.21
75006;BME280;63553;51.814;4.600;2022-12-18T14:39:59;102353.31;;;6.13;72.00
75006;BME280;63553;51.814;4.600;2022-12-18T14:42:26;102340.53;;;6.07;71.46
75006;BME280;63553;51.814;4.600;2022-12-18T14:47:58;102327.81;;;6.06;71.49
75006;BME280;63553;51.814;4.600;2022-12-18T14:50:24;102324.75;;;6.02;71.49